Time;durP1;ratioP1;P1;durP2;ratioP2;P2;SDS_P1;SDS_P2;PMS_P1;PMS_P2;Temp;Humidity;BMP_temperature;BMP_pressure;BME280_temperature;BME280_humidity;BME280_pressure;Samples;Min_cycle;Max_cycle;Signal;HPM_P1;HPM_P2
2024/01/09 00:01:45;;;;;;;97.43;44.72;;;-1.20;99.90;;;;;;5097721;28;20432;-54
2024/01/09 00:04:13;;;;;;;74.43;36.03;;;-1.10;99.90;;;;;;5097430;28;20063;-54
2024/01/09 00:06:39;;;;;;;76.90;36.42;;;-1.20;99.90;;;;;;5097441;28;20024;-54
2024/01/09 00:09:05;;;;;;;76.93;37.97;;;-1.30;99.90;;;;;;5097786;28;20030;-54
2024/01/09 00:11:31;;;;;;;73.28;33.80;;;-1.40;99.90;;;;;;5097208;28;20485;-54
2024/01/09 00:13:57;;;;;;;75.43;35.83;;;-1.60;99.90;;;;;;5097379;28;20028;-54
2024/01/09 00:16:23;;;;;;;88.22;39.78;;;-1.60;99.90;;;;;;5097333;28;20062;-54
2024/01/09 00:18:53;;;;;;;60.72;30.63;;;-1.70;99.90;;;;;;5097042;28;20103;-54
2024/01/09 00:21:22;;;;;;;63.55;32.20;;;-1.80;99.90;;;;;;5097314;28;20020;-54
2024/01/09 00:23:49;;;;;;;64.63;32.25;;;-1.80;99.90;;;;;;5097224;28;20024;-54
2024/01/09 00:26:15;;;;;;;64.07;34.33;;;-1.70;99.90;;;;;;5097013;28;20385;-54
2024/01/09 00:28:41;;;;;;;62.83;32.00;;;-1.60;99.90;;;;;;5097214;28;20032;-54
2024/01/09 00:31:07;;;;;;;68.65;34.28;;;-1.60;99.90;;;;;;5096891;28;20123;-54
2024/01/09 00:33:33;;;;;;;72.20;36.17;;;-1.60;99.90;;;;;;5096913;28;20117;-54
2024/01/09 00:35:59;;;;;;;72.03;35.00;;;-1.60;99.90;;;;;;5096868;28;20028;-54
2024/01/09 00:38:24;;;;;;;68.60;33.42;;;-1.60;99.90;;;;;;5097025;28;20023;-54
2024/01/09 00:40:50;;;;;;;75.32;35.60;;;-1.60;99.90;;;;;;5096715;28;20051;-54
2024/01/09 00:43:16;;;;;;;69.63;32.67;;;-1.60;99.90;;;;;;5096880;28;20057;-54
2024/01/09 00:45:42;;;;;;;61.47;31.08;;;-1.50;99.90;;;;;;5096667;28;20032;-54
2024/01/09 00:48:08;;;;;;;63.78;32.58;;;-1.50;99.90;;;;;;5096627;28;20474;-54
2024/01/09 00:50:34;;;;;;;66.15;32.58;;;-1.50;99.90;;;;;;5096785;28;20111;-54
2024/01/09 00:53:00;;;;;;;87.80;38.13;;;-1.40;99.90;;;;;;5096580;28;20038;-54
2024/01/09 00:55:25;;;;;;;88.00;39.10;;;-1.30;99.90;;;;;;5096583;28;20035;-54
2024/01/09 00:57:51;;;;;;;67.28;31.52;;;-1.40;99.90;;;;;;5096636;28;20028;-54
2024/01/09 01:00:18;;;;;;;64.25;31.20;;;-1.40;99.90;;;;;;5096623;28;20020;-54
2024/01/09 01:02:44;;;;;;;79.30;37.95;;;-1.40;99.90;;;;;;5096194;28;20558;-54
2024/01/09 01:05:14;;;;;;;77.30;36.55;;;-1.30;99.90;;;;;;5096517;28;20024;-54
2024/01/09 01:07:40;;;;;;;67.45;33.60;;;-1.30;99.90;;;;;;5095680;28;20085;-54
2024/01/09 01:10:06;;;;;;;63.10;32.00;;;-1.30;99.90;;;;;;5096133;28;20020;-54
2024/01/09 01:12:31;;;;;;;66.70;32.90;;;-1.30;99.90;;;;;;5096344;28;20031;-54
2024/01/09 01:14:57;;;;;;;64.65;33.17;;;-1.40;99.90;;;;;;5096155;28;20048;-54
2024/01/09 01:17:23;;;;;;;72.55;33.17;;;-1.40;99.90;;;;;;5095850;28;20111;-54
2024/01/09 01:19:49;;;;;;;66.50;32.35;;;-1.40;99.90;;;;;;5096084;28;20462;-54
2024/01/09 01:22:15;;;;;;;67.25;33.92;;;-1.60;99.90;;;;;;5096379;28;20028;-54
2024/01/09 01:24:41;;;;;;;67.32;32.63;;;-1.60;99.90;;;;;;5095913;28;20034;-54
2024/01/09 01:27:06;;;;;;;62.70;31.50;;;-1.60;99.90;;;;;;5095877;28;20051;-54
2024/01/09 01:29:32;;;;;;;72.25;33.95;;;-1.70;99.90;;;;;;5096106;28;20020;-54
2024/01/09 01:31:58;;;;;;;60.22;31.83;;;-1.70;99.90;;;;;;5095587;28;20032;-54
2024/01/09 01:34:24;;;;;;;64.85;32.17;;;-1.60;99.90;;;;;;5095821;28;20110;-54
2024/01/09 01:36:50;;;;;;;61.03;31.98;;;-1.70;99.90;;;;;;5095952;28;20481;-54
2024/01/09 01:39:15;;;;;;;62.10;32.22;;;-1.70;99.90;;;;;;5095577;28;20032;-54
2024/01/09 01:41:41;;;;;;;59.53;30.80;;;-1.70;99.90;;;;;;5095883;28;20111;-54
2024/01/09 01:44:18;;;;;;;55.50;31.25;;;-1.60;99.90;;;;;;5095743;28;20070;-54
2024/01/09 01:46:45;;;;;;;54.90;29.23;;;-1.50;99.90;;;;;;5095662;28;20040;-54
2024/01/09 01:49:14;;;;;;;58.20;30.92;;;-1.40;99.90;;;;;;5095793;28;20469;-54
2024/01/09 01:51:42;;;;;;;59.35;30.70;;;-1.40;99.90;;;;;;5095703;28;20049;-54
2024/01/09 01:54:08;;;;;;;52.97;29.38;;;-1.30;99.90;;;;;;5095400;28;20040;-54
2024/01/09 01:56:34;;;;;;;54.92;28.60;;;-1.30;99.90;;;;;;5095704;28;20012;-54
2024/01/09 01:59:01;;;;;;;50.10;28.00;;;-1.20;99.90;;;;;;5095596;28;20032;-54
2024/01/09 02:01:28;;;;;;;49.30;26.48;;;-1.10;99.90;;;;;;5095375;28;20035;-54
2024/01/09 02:03:55;;;;;;;46.42;25.33;;;-1.30;99.90;;;;;;5095516;28;20042;-54
2024/01/09 02:06:22;;;;;;;47.80;25.35;;;-1.40;99.90;;;;;;5095643;28;20036;-54
2024/01/09 02:08:48;;;;;;;47.70;25.40;;;-1.50;99.90;;;;;;5095193;28;20058;-54
2024/01/09 02:11:15;;;;;;;53.25;27.77;;;-1.70;99.90;;;;;;5095341;28;20028;-54
2024/01/09 02:13:40;;;;;;;50.72;26.17;;;-1.70;99.90;;;;;;5095285;28;20047;-55
2024/01/09 02:16:06;;;;;;;56.65;27.52;;;-1.70;99.90;;;;;;5095381;28;20017;-54
2024/01/09 02:18:32;;;;;;;48.55;25.98;;;-1.60;99.90;;;;;;5095436;28;20115;-54
2024/01/09 02:20:58;;;;;;;49.28;26.05;;;-1.60;99.90;;;;;;5099625;28;20020;-54
2024/01/09 02:23:24;;;;;;;45.28;23.42;;;-1.70;99.90;;;;;;5099430;28;20028;-54
2024/01/09 02:25:52;;;;;;;40.63;22.75;;;-1.70;99.90;;;;;;5099424;28;20062;-54
2024/01/09 02:28:27;;;;;;;38.30;20.20;;;-1.70;99.90;;;;;;5099576;28;20012;-54
2024/01/09 02:30:55;;;;;;;31.95;18.67;;;-1.70;99.90;;;;;;5099179;28;20028;-54
2024/01/09 02:33:21;;;;;;;33.38;19.70;;;-1.70;99.90;;;;;;5099302;28;20020;-54
2024/01/09 02:35:47;;;;;;;40.92;21.42;;;-1.70;99.90;;;;;;5099131;28;20040;-54
2024/01/09 02:38:13;;;;;;;42.95;22.90;;;-1.70;99.90;;;;;;5099149;28;20095;-54
2024/01/09 02:40:39;;;;;;;40.75;20.83;;;-1.70;99.90;;;;;;5099287;28;20039;-54
2024/01/09 02:43:06;;;;;;;37.38;20.70;;;-1.60;99.90;;;;;;5099298;28;20032;-54
2024/01/09 02:45:32;;;;;;;37.83;20.40;;;-1.60;99.90;;;;;;5098954;28;20069;-54
2024/01/09 02:47:58;;;;;;;36.35;20.13;;;-1.50;99.90;;;;;;5098946;28;20473;-54
2024/01/09 02:50:24;;;;;;;36.75;19.48;;;-1.40;99.90;;;;;;5099277;28;20036;-54
2024/01/09 02:52:50;;;;;;;37.17;20.65;;;-1.40;99.90;;;;;;5098702;28;20040;-54
2024/01/09 02:55:16;;;;;;;36.88;19.92;;;-1.50;99.90;;;;;;5098973;28;20020;-54
2024/01/09 02:57:41;;;;;;;35.28;19.25;;;-1.40;99.90;;;;;;5098898;28;20436;-54
2024/01/09 03:00:08;;;;;;;41.72;20.67;;;-1.30;99.90;;;;;;5096605;28;20625;-54
2024/01/09 03:02:35;;;;;;;37.85;20.40;;;-1.40;99.90;;;;;;5098796;28;20416;-54
2024/01/09 03:05:03;;;;;;;39.00;21.85;;;-1.50;99.90;;;;;;5098844;28;20028;-54
2024/01/09 03:07:29;;;;;;;37.58;20.27;;;-1.50;99.90;;;;;;5098973;28;20020;-54
2024/01/09 03:09:54;;;;;;;38.88;21.30;;;-1.50;99.90;;;;;;5098977;28;20055;-54
2024/01/09 03:12:20;;;;;;;38.33;21.73;;;-1.70;99.90;;;;;;5098099;28;20044;-54
2024/01/09 03:14:46;;;;;;;40.90;22.40;;;-1.60;99.90;;;;;;5098604;28;20146;-54
2024/01/09 03:17:12;;;;;;;41.55;22.50;;;-1.60;99.90;;;;;;5098415;28;20488;-54
2024/01/09 03:19:38;;;;;;;45.08;23.45;;;-1.70;99.90;;;;;;5098608;28;20032;-54
2024/01/09 03:22:04;;;;;;;38.72;22.20;;;-1.80;99.90;;;;;;5098449;28;20020;-54
2024/01/09 03:24:29;;;;;;;40.03;21.33;;;-1.70;99.90;;;;;;5098306;28;20034;-54
2024/01/09 03:26:56;;;;;;;42.92;22.73;;;-1.80;99.90;;;;;;5098400;28;20020;-54
2024/01/09 03:29:22;;;;;;;40.15;22.75;;;-1.80;99.90;;;;;;5097951;28;20087;-54
2024/01/09 03:31:47;;;;;;;40.60;21.58;;;-1.80;99.90;;;;;;5097705;28;20063;-54
2024/01/09 03:34:13;;;;;;;40.58;21.92;;;-1.70;99.90;;;;;;5098143;28;20031;-54
2024/01/09 03:36:39;;;;;;;40.85;22.23;;;-1.60;99.90;;;;;;5098253;28;20046;-54
2024/01/09 03:39:08;;;;;;;40.17;22.25;;;-1.60;99.90;;;;;;5098046;28;20020;-54
2024/01/09 03:41:34;;;;;;;41.67;22.90;;;-1.70;99.90;;;;;;5097981;28;20024;-54
2024/01/09 03:44:00;;;;;;;40.30;22.48;;;-1.70;99.90;;;;;;5098097;28;20034;-54
2024/01/09 03:46:26;;;;;;;40.55;23.17;;;-1.70;99.90;;;;;;5097873;28;20057;-54
2024/01/09 03:48:52;;;;;;;41.83;23.02;;;-1.60;99.90;;;;;;5098017;28;20039;-54
2024/01/09 03:51:17;;;;;;;39.97;21.75;;;-1.60;99.90;;;;;;5097877;28;20027;-54
2024/01/09 03:53:43;;;;;;;39.10;21.23;;;-1.50;99.90;;;;;;5097688;28;20462;-54
2024/01/09 03:56:09;;;;;;;41.28;22.52;;;-1.50;99.90;;;;;;5097826;28;20426;-54
2024/01/09 03:58:35;;;;;;;48.03;22.95;;;-1.50;99.90;;;;;;5097597;28;20040;-54
2024/01/09 04:01:02;;;;;;;38.45;21.83;;;-1.50;99.90;;;;;;5097631;28;20099;-54
2024/01/09 04:03:27;;;;;;;46.92;25.00;;;-1.50;99.90;;;;;;5097738;28;20024;-54
2024/01/09 04:05:53;;;;;;;42.88;23.73;;;-1.60;99.90;;;;;;5097736;28;20024;-54
2024/01/09 04:08:19;;;;;;;39.25;21.55;;;-1.50;99.90;;;;;;5097176;28;20400;-54
2024/01/09 04:10:48;;;;;;;42.95;22.70;;;-1.50;99.90;;;;;;5097525;28;20035;-54
2024/01/09 04:13:14;;;;;;;47.65;24.30;;;-1.70;99.90;;;;;;5097510;28;20115;-54
2024/01/09 04:15:40;;;;;;;45.10;24.30;;;-1.80;99.90;;;;;;5097367;28;20190;-54
2024/01/09 04:18:06;;;;;;;46.03;24.50;;;-1.80;99.90;;;;;;5097286;28;20493;-54
2024/01/09 04:20:32;;;;;;;44.25;23.20;;;-1.70;99.90;;;;;;5097425;28;20093;-54
2024/01/09 04:22:58;;;;;;;43.40;22.85;;;-1.60;99.90;;;;;;5097136;28;20032;-54
2024/01/09 04:25:24;;;;;;;49.28;25.70;;;-1.50;99.90;;;;;;5097308;28;20032;-54
2024/01/09 04:27:50;;;;;;;45.05;23.88;;;-1.70;99.90;;;;;;5097258;28;20059;-54
2024/01/09 04:30:16;;;;;;;46.95;25.00;;;-1.80;99.90;;;;;;5096835;28;20436;-54
2024/01/09 04:32:41;;;;;;;48.25;25.48;;;-1.80;99.90;;;;;;5097031;28;20026;-54
2024/01/09 04:35:07;;;;;;;46.95;26.15;;;-1.90;99.90;;;;;;5096983;28;20046;-54
2024/01/09 04:37:33;;;;;;;44.17;23.77;;;-1.70;99.90;;;;;;5096900;28;20106;-54
2024/01/09 04:39:59;;;;;;;48.80;25.90;;;-1.80;99.90;;;;;;5097027;28;20016;-54
2024/01/09 04:42:26;;;;;;;52.33;25.05;;;-1.90;99.90;;;;;;5096001;28;20367;-54
2024/01/09 04:44:52;;;;;;;45.58;24.77;;;-1.70;99.90;;;;;;5096668;28;20031;-54
2024/01/09 04:47:17;;;;;;;52.58;26.48;;;-1.70;99.90;;;;;;5097034;28;20024;-54
2024/01/09 04:49:43;;;;;;;42.67;23.27;;;-1.60;99.90;;;;;;5096781;28;20024;-54
2024/01/09 04:52:09;;;;;;;47.13;25.10;;;-1.60;99.90;;;;;;5096752;28;20078;-54
2024/01/09 04:54:35;;;;;;;47.83;24.30;;;-1.70;99.90;;;;;;5096667;28;20095;-54
2024/01/09 04:57:01;;;;;;;51.60;27.55;;;-1.70;99.90;;;;;;5096625;28;20381;-54
2024/01/09 04:59:27;;;;;;;52.85;26.88;;;-1.70;99.90;;;;;;5096400;28;20108;-54
2024/01/09 05:01:53;;;;;;;59.53;28.42;;;-1.50;99.90;;;;;;5096585;28;20024;-54
2024/01/09 05:04:18;;;;;;;53.65;27.33;;;-1.60;99.90;;;;;;5096558;28;20457;-54
2024/01/09 05:06:44;;;;;;;48.13;25.75;;;-1.70;99.90;;;;;;5096086;28;20039;-54
2024/01/09 05:09:11;;;;;;;49.65;26.13;;;-1.70;99.90;;;;;;5096146;28;20042;-54
2024/01/09 05:11:37;;;;;;;52.35;27.13;;;-1.70;99.90;;;;;;5096183;28;20024;-54
2024/01/09 05:14:03;;;;;;;58.05;29.13;;;-1.70;99.90;;;;;;5096254;28;20025;-54
2024/01/09 05:16:29;;;;;;;49.35;26.42;;;-1.70;99.90;;;;;;5096406;28;20032;-54
2024/01/09 05:18:55;;;;;;;56.05;26.83;;;-1.90;99.90;;;;;;5096101;28;20374;-54
2024/01/09 05:21:21;;;;;;;50.58;26.77;;;-1.90;99.90;;;;;;5096083;28;20139;-54
2024/01/09 05:23:47;;;;;;;54.28;27.75;;;-1.90;99.90;;;;;;5095913;28;20039;-54
2024/01/09 05:26:13;;;;;;;52.63;27.55;;;-1.80;99.90;;;;;;5096223;28;20472;-54
2024/01/09 05:28:39;;;;;;;51.90;27.42;;;-1.80;99.90;;;;;;5095775;28;20087;-54
2024/01/09 05:31:05;;;;;;;47.05;27.13;;;-1.80;99.90;;;;;;5096042;28;20408;-54
2024/01/09 05:33:35;;;;;;;56.95;30.08;;;-1.80;99.90;;;;;;5095746;28;20034;-54
2024/01/09 05:36:02;;;;;;;50.70;26.55;;;-1.90;99.90;;;;;;5095673;28;20036;-54
2024/01/09 05:38:28;;;;;;;48.78;26.40;;;-1.90;99.90;;;;;;5095945;28;20024;-54
2024/01/09 05:40:54;;;;;;;52.97;29.35;;;-1.80;99.90;;;;;;5095845;28;20428;-54
2024/01/09 05:43:20;;;;;;;62.47;30.35;;;-1.80;99.90;;;;;;5095553;28;20421;-54
2024/01/09 05:45:46;;;;;;;57.00;29.70;;;-1.70;99.90;;;;;;5095695;28;20024;-54
2024/01/09 05:48:12;;;;;;;55.28;28.55;;;-1.80;99.90;;;;;;5095559;28;20036;-54
2024/01/09 05:50:38;;;;;;;50.95;28.02;;;-1.80;99.90;;;;;;5095641;28;20077;-54
2024/01/09 05:53:04;;;;;;;57.30;29.63;;;-1.80;99.90;;;;;;5095394;28;20047;-54
2024/01/09 05:55:30;;;;;;;55.25;30.85;;;-1.90;99.90;;;;;;5095700;28;20504;-54
2024/01/09 05:57:56;;;;;;;60.70;29.25;;;-1.80;99.90;;;;;;5095446;28;20035;-54
2024/01/09 06:00:22;;;;;;;69.93;34.38;;;-1.70;99.90;;;;;;5095650;28;20028;-54
2024/01/09 06:02:48;;;;;;;73.43;36.30;;;-1.60;99.90;;;;;;5095367;28;20060;-54
2024/01/09 06:05:13;;;;;;;64.65;32.75;;;-1.60;99.90;;;;;;5095325;28;20424;-54
2024/01/09 06:07:39;;;;;;;70.75;34.85;;;-1.70;99.90;;;;;;5095317;28;20032;-54
2024/01/09 06:10:06;;;;;;;68.32;34.60;;;-1.60;99.90;;;;;;5095514;28;20030;-54
2024/01/09 06:12:32;;;;;;;65.28;35.80;;;-1.60;99.90;;;;;;5094974;28;20052;-54
2024/01/09 06:14:57;;;;;;;63.47;35.05;;;-1.50;99.90;;;;;;5095567;28;20367;-54
2024/01/09 06:17:23;;;;;;;63.45;33.70;;;-1.60;99.90;;;;;;5094923;28;20028;-54
2024/01/09 06:19:49;;;;;;;61.40;32.50;;;-1.60;99.90;;;;;;5094125;28;20465;-54
2024/01/09 06:22:16;;;;;;;63.50;32.40;;;-1.70;99.90;;;;;;5089788;28;20386;-54
2024/01/09 06:24:42;;;;;;;64.80;31.13;;;-1.60;99.90;;;;;;5086593;28;20107;-54
2024/01/09 06:27:07;;;;;;;62.55;30.80;;;-1.70;99.90;;;;;;5093132;28;20058;-54
2024/01/09 06:29:33;;;;;;;60.05;31.00;;;-1.70;99.90;;;;;;5088177;28;20483;-54
2024/01/09 06:31:59;;;;;;;57.33;31.35;;;-1.60;99.90;;;;;;5094986;28;20039;-54
2024/01/09 06:34:25;;;;;;;55.13;30.80;;;-1.70;99.90;;;;;;5094819;28;20032;-54
2024/01/09 06:36:51;;;;;;;64.55;31.38;;;-1.60;99.90;;;;;;5094974;28;20081;-54
2024/01/09 06:39:16;;;;;;;62.58;32.17;;;-1.60;99.90;;;;;;5088668;28;20020;-54
2024/01/09 06:41:43;;;;;;;63.92;33.05;;;-1.70;99.90;;;;;;5084128;28;20031;-54
2024/01/09 06:44:09;;;;;;;64.45;32.65;;;-1.70;99.90;;;;;;5094667;28;20036;-54
2024/01/09 06:46:35;;;;;;;68.63;33.97;;;-1.60;99.90;;;;;;5080343;28;20070;-54
2024/01/09 06:49:02;;;;;;;61.45;33.63;;;-1.60;99.90;;;;;;5075013;28;20489;-54
2024/01/09 06:51:29;;;;;;;68.60;34.28;;;-1.60;99.90;;;;;;5088736;28;20122;-54
2024/01/09 06:53:55;;;;;;;62.72;32.17;;;-1.60;99.90;;;;;;5093934;28;20028;-54
2024/01/09 06:56:21;;;;;;;64.32;34.15;;;-1.60;99.90;;;;;;5090718;28;20402;-54
2024/01/09 06:58:47;;;;;;;65.28;35.13;;;-1.50;99.90;;;;;;5092332;28;20036;-54
2024/01/09 07:01:13;;;;;;;86.30;42.95;;;-1.40;99.90;;;;;;5093337;28;20028;-54
2024/01/09 07:03:39;;;;;;;98.18;50.83;;;-1.50;99.90;;;;;;5094536;28;20373;-53
2024/01/09 07:06:04;;;;;;;98.80;50.40;;;-1.50;99.90;;;;;;5091105;28;20424;-54
2024/01/09 07:08:31;;;;;;;100.53;49.30;;;-1.50;99.90;;;;;;5093407;28;20036;-54
2024/01/09 07:10:57;;;;;;;84.47;42.20;;;-1.50;99.90;;;;;;5098586;28;20028;-54
2024/01/09 07:13:23;;;;;;;84.22;41.53;;;-1.50;99.90;;;;;;5097921;28;20035;-54
2024/01/09 07:15:52;;;;;;;73.70;38.00;;;-1.50;99.90;;;;;;5099121;28;20042;-54
2024/01/09 07:18:17;;;;;;;76.00;37.38;;;-1.50;99.90;;;;;;5095445;28;20039;-54
2024/01/09 07:20:44;;;;;;;72.75;35.60;;;-1.50;99.90;;;;;;5098334;28;20035;-54
2024/01/09 07:23:10;;;;;;;70.90;36.60;;;-1.50;99.90;;;;;;5098162;28;20036;-54
2024/01/09 07:25:36;;;;;;;72.63;36.28;;;-1.40;99.90;;;;;;5098504;28;20393;-54
2024/01/09 07:28:02;;;;;;;76.70;38.60;;;-1.50;99.90;;;;;;5098436;28;20036;-54
2024/01/09 07:30:28;;;;;;;78.65;38.67;;;-1.50;99.90;;;;;;5096988;28;20039;-54
2024/01/09 07:32:53;;;;;;;71.00;37.22;;;-1.60;99.90;;;;;;5097844;28;20035;-54
2024/01/09 07:35:19;;;;;;;67.75;35.70;;;-1.50;99.90;;;;;;5092617;28;20020;-54
2024/01/09 07:37:45;;;;;;;67.20;33.92;;;-1.50;99.90;;;;;;5077914;28;20025;-54
2024/01/09 07:40:11;;;;;;;85.22;39.83;;;-1.50;99.90;;;;;;5077541;28;20401;-54
2024/01/09 07:42:37;;;;;;;214.80;79.57;;;-1.40;99.90;;;;;;5078151;28;20477;-54
2024/01/09 07:45:04;;;;;;;152.88;59.55;;;-1.50;99.90;;;;;;5078372;28;20028;-54
2024/01/09 07:47:30;;;;;;;142.45;58.65;;;-1.40;99.90;;;;;;5077823;28;20028;-54
2024/01/09 07:49:55;;;;;;;130.48;57.08;;;-1.30;99.90;;;;;;5094459;28;20046;-54
2024/01/09 07:52:21;;;;;;;112.82;49.65;;;-1.20;99.90;;;;;;5092092;28;20037;-54
2024/01/09 07:54:47;;;;;;;92.10;43.67;;;-1.30;99.90;;;;;;5098130;28;20437;-54
2024/01/09 07:57:15;;;;;;;74.78;39.13;;;-1.20;99.90;;;;;;5097936;28;20035;-54
2024/01/09 07:59:42;;;;;;;76.88;37.90;;;-1.20;99.90;;;;;;5097535;28;20127;-55
2024/01/09 08:02:08;;;;;;;70.57;35.75;;;-1.30;99.90;;;;;;5096585;28;20032;-54
2024/01/09 08:04:33;;;;;;;66.43;34.85;;;-1.10;99.90;;;;;;5097673;28;20389;-54
2024/01/09 08:06:59;;;;;;;61.03;32.25;;;-1.20;99.90;;;;;;5097841;28;20035;-54
2024/01/09 08:09:25;;;;;;;61.80;33.83;;;-1.00;99.90;;;;;;5097420;28;20360;-54
2024/01/09 08:11:51;;;;;;;66.50;34.88;;;-1.00;99.90;;;;;;5091250;28;20036;-54
2024/01/09 08:14:18;;;;;;;88.95;44.28;;;-1.00;99.90;;;;;;5097421;28;20374;-54
2024/01/09 08:16:44;;;;;;;73.32;35.97;;;-1.00;99.90;;;;;;5097420;28;20035;-54
2024/01/09 08:19:10;;;;;;;75.25;38.05;;;-1.00;99.90;;;;;;5097344;28;20032;-54
2024/01/09 08:21:36;;;;;;;83.55;40.00;;;-1.00;99.90;;;;;;5097094;28;20044;-54
2024/01/09 08:24:03;;;;;;;90.90;43.95;;;-0.90;99.90;;;;;;5096737;28;20425;-54
2024/01/09 08:26:30;;;;;;;68.18;35.88;;;-1.00;99.90;;;;;;5096574;28;20062;-54
2024/01/09 08:28:56;;;;;;;76.00;38.65;;;-1.00;99.90;;;;;;5096949;28;20024;-54
2024/01/09 08:31:22;;;;;;;78.35;41.85;;;-1.00;99.90;;;;;;5097172;28;20672;-54
2024/01/09 08:33:47;;;;;;;66.28;35.47;;;-1.10;99.90;;;;;;5096579;28;20016;-54
2024/01/09 08:36:14;;;;;;;71.40;37.90;;;-1.10;99.90;;;;;;5097483;28;20107;-54
2024/01/09 08:38:40;;;;;;;94.55;47.70;;;-1.00;99.90;;;;;;5090335;28;20107;-54
2024/01/09 08:41:06;;;;;;;84.45;41.05;;;-0.90;99.90;;;;;;5076177;28;20059;-54
2024/01/09 08:43:32;;;;;;;75.45;39.65;;;-1.00;99.90;;;;;;5085194;28;20020;-54
2024/01/09 08:45:58;;;;;;;79.70;39.22;;;-0.80;99.90;;;;;;5096783;28;20046;-54
2024/01/09 08:48:24;;;;;;;74.55;38.35;;;-0.80;99.90;;;;;;5096253;28;20107;-54
2024/01/09 08:50:50;;;;;;;72.40;37.20;;;-0.80;99.90;;;;;;5096524;28;20062;-54
2024/01/09 08:53:16;;;;;;;69.65;36.72;;;-0.70;99.90;;;;;;5096070;28;20111;-54
2024/01/09 08:55:42;;;;;;;73.00;35.97;;;-0.70;99.90;;;;;;5096047;28;20055;-54
2024/01/09 08:58:08;;;;;;;90.30;39.15;;;-0.70;99.90;;;;;;5096272;28;20555;-54
2024/01/09 09:00:34;;;;;;;74.00;39.55;;;-0.60;99.90;;;;;;5094543;28;20105;-55
2024/01/09 09:03:00;;;;;;;74.53;38.08;;;-0.40;99.90;;;;;;5087485;28;20024;-54
2024/01/09 09:05:26;;;;;;;84.75;41.90;;;-0.50;99.90;;;;;;5076090;28;20386;-54
2024/01/09 09:07:52;;;;;;;75.35;38.25;;;-0.40;99.90;;;;;;5075517;28;20174;-54
2024/01/09 09:10:18;;;;;;;73.20;35.25;;;-0.40;99.90;;;;;;5092122;28;20051;-54
2024/01/09 09:12:45;;;;;;;64.45;34.70;;;-0.50;99.90;;;;;;5095288;28;20024;-54
2024/01/09 09:15:11;;;;;;;78.53;40.42;;;-0.40;99.90;;;;;;5094966;28;20085;-54
2024/01/09 09:17:36;;;;;;;72.28;34.83;;;-0.50;99.90;;;;;;5094996;28;20065;-54
2024/01/09 09:20:05;;;;;;;76.38;36.08;;;-0.60;99.90;;;;;;5095130;28;20432;-54
2024/01/09 09:22:31;;;;;;;70.70;36.92;;;-0.40;99.90;;;;;;5095369;28;20040;-54
2024/01/09 09:24:58;;;;;;;70.47;36.70;;;-0.60;99.90;;;;;;5095261;28;20055;-54
2024/01/09 09:27:24;;;;;;;77.72;42.13;;;-0.50;99.90;;;;;;5089080;28;20024;-54
2024/01/09 09:29:52;;;;;;;77.07;38.83;;;-0.50;99.90;;;;;;5083797;28;20651;-54
2024/01/09 09:32:18;;;;;;;80.38;40.17;;;-0.40;99.90;;;;;;5092182;28;20036;-54
2024/01/09 09:34:44;;;;;;;74.05;36.22;;;-0.30;99.90;;;;;;5091539;28;20043;-54
2024/01/09 09:37:11;;;;;;;76.15;36.08;;;-0.30;99.90;;;;;;5096288;28;20024;-54
2024/01/09 09:39:37;;;;;;;77.50;36.47;;;-0.40;99.90;;;;;;5095259;28;20016;-54
2024/01/09 09:42:03;;;;;;;78.80;36.85;;;-0.30;99.90;;;;;;5095887;28;20040;-54
2024/01/09 09:44:29;;;;;;;84.47;38.70;;;-0.30;99.90;;;;;;5095928;28;20122;-54
2024/01/09 09:46:58;;;;;;;87.25;36.78;;;-0.30;99.90;;;;;;5095129;28;20067;-54
2024/01/09 09:49:24;;;;;;;75.00;36.95;;;-0.20;99.90;;;;;;5095387;28;20028;-54
2024/01/09 09:51:51;;;;;;;65.50;32.58;;;-0.20;99.90;;;;;;5088432;28;20629;-54
2024/01/09 09:54:19;;;;;;;68.60;31.77;;;-0.30;99.90;;;;;;5095372;28;20031;-54
2024/01/09 09:56:45;;;;;;;67.03;34.55;;;-0.30;99.90;;;;;;5095430;28;20031;-54
2024/01/09 09:59:12;;;;;;;75.55;34.80;;;-0.30;99.90;;;;;;5093423;28;20035;-54
2024/01/09 10:01:42;;;;;;;68.63;34.88;;;-0.40;99.90;;;;;;5093289;28;20477;-54
2024/01/09 10:04:27;;;;;;;68.05;34.42;;;-0.60;99.90;;;;;;5086147;28;20466;-54
2024/01/09 10:06:56;;;;;;;72.30;35.80;;;-0.60;99.90;;;;;;5084151;28;20024;-54
2024/01/09 10:09:23;;;;;;;84.35;38.65;;;-0.60;99.90;;;;;;5094869;28;20033;-54
2024/01/09 10:11:52;;;;;;;91.07;40.63;;;-0.50;99.90;;;;;;5094743;28;20024;-54
2024/01/09 10:14:18;;;;;;;66.55;33.75;;;-0.70;99.90;;;;;;5094861;28;20115;-54
2024/01/09 10:16:55;;;;;;;60.63;31.55;;;-0.70;99.90;;;;;;5094647;28;20423;-55
2024/01/09 10:19:24;;;;;;;64.50;32.60;;;-0.70;99.90;;;;;;5095325;28;20039;-54
2024/01/09 10:21:51;;;;;;;66.45;33.60;;;-0.70;99.90;;;;;;5094900;28;20031;-54
2024/01/09 10:24:17;;;;;;;62.55;31.48;;;-0.40;99.90;;;;;;5094747;28;20029;-54
2024/01/09 10:26:43;;;;;;;59.90;30.52;;;-0.40;99.90;;;;;;5092759;28;20036;-54
2024/01/09 10:40:32;;;;;;;71.75;35.38;;;-0.40;99.90;;;;;;5091848;28;20137;-54
2024/01/09 10:42:58;;;;;;;67.25;35.22;;;-0.40;99.90;;;;;;5099160;28;20561;-54
2024/01/09 10:45:26;;;;;;;71.38;37.65;;;-0.40;99.90;;;;;;5088343;28;20048;-54
2024/01/09 10:47:53;;;;;;;63.53;35.47;;;-0.40;99.90;;;;;;5096071;28;20031;-54
2024/01/09 10:50:23;;;;;;;72.60;37.42;;;-0.30;99.90;;;;;;5097856;28;20426;-54
2024/01/09 10:52:49;;;;;;;62.35;33.15;;;-0.30;99.90;;;;;;5098783;28;20248;-54
2024/01/09 10:55:18;;;;;;;61.58;32.60;;;-0.30;99.90;;;;;;5098613;28;20024;-54
2024/01/09 10:57:45;;;;;;;56.42;32.10;;;-0.30;99.90;;;;;;5098515;28;20020;-54
2024/01/09 11:00:12;;;;;;;67.60;33.78;;;-0.30;99.90;;;;;;5098163;28;20055;-54
2024/01/09 11:02:39;;;;;;;89.03;40.42;;;-0.10;99.90;;;;;;5098463;28;20040;-54
2024/01/09 11:05:06;;;;;;;87.90;43.15;;;-0.10;99.90;;;;;;5098483;28;20053;-54
2024/01/09 11:07:35;;;;;;;84.68;42.88;;;-0.10;99.90;;;;;;5098210;28;20035;-54
2024/01/09 11:10:03;;;;;;;93.50;42.38;;;-0.30;99.90;;;;;;5091053;28;20044;-54
2024/01/09 11:12:42;;;;;;;94.57;42.55;;;-0.30;99.90;;;;;;5087852;28;20114;-54
2024/01/09 11:15:36;;;;;;;84.05;39.55;;;-0.40;99.90;;;;;;5098156;28;20024;-54
2024/01/09 11:18:14;;;;;;;96.80;46.70;;;-0.40;99.90;;;;;;5096470;28;20043;-54
2024/01/09 11:20:40;;;;;;;116.75;52.85;;;-0.40;99.90;;;;;;5098237;28;20039;-54
2024/01/09 11:23:06;;;;;;;108.88;49.50;;;-0.50;99.90;;;;;;5098079;28;20524;-54
2024/01/09 11:25:33;;;;;;;112.88;50.90;;;-0.40;99.90;;;;;;5098157;28;20078;-54
2024/01/09 11:28:00;;;;;;;105.55;47.38;;;-0.50;99.90;;;;;;5098413;28;20032;-54
2024/01/09 11:30:27;;;;;;;108.13;47.38;;;-0.50;99.90;;;;;;5098255;28;20043;-54
2024/01/09 11:32:55;;;;;;;106.82;46.13;;;-0.60;99.90;;;;;;5095813;28;20040;-54
2024/01/09 11:35:21;;;;;;;98.70;48.53;;;-0.50;99.90;;;;;;5097251;28;20084;-54
2024/01/09 11:37:49;;;;;;;94.85;46.50;;;-0.60;99.90;;;;;;5097950;28;20052;-54
2024/01/09 11:40:16;;;;;;;91.97;46.45;;;-0.50;99.90;;;;;;5097582;28;20031;-54
2024/01/09 11:42:51;;;;;;;81.82;41.22;;;-0.50;99.90;;;;;;5097908;28;20021;-54
2024/01/09 11:45:21;;;;;;;82.47;41.10;;;-0.50;99.90;;;;;;5097645;28;20076;-54
2024/01/09 11:47:47;;;;;;;63.33;33.03;;;-0.30;99.90;;;;;;5098446;28;20033;-54
2024/01/09 11:50:13;;;;;;;69.40;36.60;;;-0.40;99.90;;;;;;5093801;28;20025;-54
2024/01/09 11:52:41;;;;;;;79.53;38.83;;;-0.30;99.90;;;;;;5093200;28;20024;-54
2024/01/09 11:55:09;;;;;;;63.47;34.45;;;-0.30;99.90;;;;;;5097662;28;20027;-54
2024/01/09 11:57:35;;;;;;;59.13;31.75;;;-0.30;99.90;;;;;;5097499;28;20028;-54
2024/01/09 12:00:03;;;;;;;63.78;33.38;;;-0.30;99.90;;;;;;5097260;28;20024;-54
2024/01/09 12:02:33;;;;;;;56.00;31.67;;;-0.40;99.90;;;;;;5095954;28;20028;-54
2024/01/09 12:05:06;;;;;;;64.85;32.97;;;-0.50;99.90;;;;;;5097920;28;20046;-54
2024/01/09 12:07:33;;;;;;;65.15;34.30;;;-0.50;99.90;;;;;;5097328;28;20509;-54
2024/01/09 12:10:04;;;;;;;70.07;33.40;;;-0.60;99.90;;;;;;5096714;28;20064;-54
2024/01/09 12:12:30;;;;;;;68.18;33.92;;;-0.40;99.90;;;;;;5095709;28;20020;-54
2024/01/09 12:14:57;;;;;;;63.80;32.95;;;-0.40;99.90;;;;;;5096829;28;20427;-54
2024/01/09 12:17:36;;;;;;;58.90;32.30;;;-0.40;99.90;;;;;;5096948;28;20039;-54
2024/01/09 12:20:03;;;;;;;78.43;39.53;;;-0.60;99.90;;;;;;5097265;28;20103;-54
2024/01/09 12:22:33;;;;;;;61.80;30.65;;;-0.40;99.90;;;;;;5096697;28;20024;-54
2024/01/09 12:25:00;;;;;;;52.83;27.15;;;-0.40;99.90;;;;;;5096751;28;20465;-54
2024/01/09 12:27:26;;;;;;;53.83;26.60;;;-0.50;99.90;;;;;;5095521;28;20044;-54
2024/01/09 12:29:52;;;;;;;44.50;23.17;;;-0.50;99.90;;;;;;5088846;28;20036;-54
2024/01/09 12:32:21;;;;;;;40.38;22.45;;;-0.50;99.90;;;;;;5084280;28;20085;-54
2024/01/09 12:34:46;;;;;;;50.95;27.17;;;-0.50;99.90;;;;;;5096723;28;20051;-54